Time;durP1;ratioP1;P1;durP2;ratioP2;P2;SDS_P1;SDS_P2;PMS_P1;PMS_P2;Temp;Humidity;BMP_temperature;BMP_pressure;BME280_temperature;BME280_humidity;BME280_pressure;Samples;Min_cycle;Max_cycle;Signal;HPM_P1;HPM_P2
2022/01/02 00:00:08;;;;;;;9.30;6.10;;;11.60;99.90;;;;;;4807492;29;20090;-83
2022/01/02 00:02:34;;;;;;;9.00;6.03;;;11.60;99.90;;;;;;4806008;29;20053;-83
2022/01/02 00:05:12;;;;;;;11.30;5.97;;;11.60;99.90;;;;;;4791399;29;20138;-83
2022/01/02 00:07:56;;;;;;;11.10;5.72;;;11.60;99.90;;;;;;4807093;29;20054;-83
2022/01/02 00:10:21;;;;;;;13.48;6.53;;;11.60;99.90;;;;;;4806073;29;20051;-83
2022/01/02 00:12:52;;;;;;;9.63;6.50;;;11.60;99.90;;;;;;4807447;29;20445;-83
2022/01/02 00:15:20;;;;;;;13.98;6.57;;;11.60;99.90;;;;;;4805670;29;20502;-83
2022/01/02 00:17:45;;;;;;;9.93;6.55;;;11.60;99.90;;;;;;4807207;29;20051;-83
2022/01/02 00:20:13;;;;;;;17.60;6.00;;;11.60;99.90;;;;;;4807095;29;20121;-82
2022/01/02 00:22:40;;;;;;;10.75;6.20;;;11.60;99.90;;;;;;4790938;29;20062;-83
2022/01/02 00:25:23;;;;;;;10.73;6.22;;;11.60;99.90;;;;;;4805762;29;20097;-83
2022/01/02 00:27:49;;;;;;;9.88;6.32;;;11.50;99.90;;;;;;4806326;29;20059;-83
2022/01/02 00:30:15;;;;;;;11.27;6.43;;;11.50;99.90;;;;;;4805940;29;20410;-83
2022/01/02 00:32:40;;;;;;;9.68;6.28;;;11.50;99.90;;;;;;4790166;29;20063;-83
2022/01/02 00:35:06;;;;;;;8.65;5.82;;;11.50;99.90;;;;;;4775771;29;20057;-82
2022/01/02 00:37:32;;;;;;;14.27;6.82;;;11.50;99.90;;;;;;4806372;29;20050;-83
2022/01/02 00:39:58;;;;;;;9.50;6.50;;;11.50;99.90;;;;;;4806803;29;20051;-83
2022/01/02 00:42:38;;;;;;;12.93;5.97;;;11.50;99.90;;;;;;4806326;29;20493;-83
2022/01/02 00:45:08;;;;;;;12.68;6.70;;;11.50;99.90;;;;;;4805438;29;20059;-82
2022/01/02 00:47:36;;;;;;;11.68;7.07;;;11.50;99.90;;;;;;4790516;29;20061;-83
2022/01/02 00:50:13;;;;;;;10.73;6.47;;;11.50;99.90;;;;;;4806564;29;20051;-83
2022/01/02 00:52:43;;;;;;;11.93;6.85;;;11.50;99.90;;;;;;4806424;29;20046;-83
2022/01/02 00:55:13;;;;;;;13.98;6.70;;;11.50;99.90;;;;;;4806249;29;20486;-83
2022/01/02 00:57:42;;;;;;;12.00;6.70;;;11.50;99.90;;;;;;4804863;29;20410;-83
2022/01/02 01:00:12;;;;;;;11.88;6.43;;;11.50;99.90;;;;;;4806422;29;20051;-83
2022/01/02 01:02:46;;;;;;;11.70;6.40;;;11.50;99.90;;;;;;4805011;29;20046;-83
2022/01/02 01:05:17;;;;;;;11.50;6.57;;;11.50;99.90;;;;;;4806635;29;20123;-83
2022/01/02 01:07:43;;;;;;;14.95;6.15;;;11.50;99.90;;;;;;4804755;29;20051;-83
2022/01/02 01:10:11;;;;;;;13.68;6.13;;;11.50;99.90;;;;;;4805029;29;20051;-83
2022/01/02 01:12:36;;;;;;;11.50;6.60;;;11.50;99.90;;;;;;4804519;29;20059;-83
2022/01/02 01:15:04;;;;;;;15.02;7.18;;;11.50;99.90;;;;;;4804749;29;20054;-83
2022/01/02 01:17:31;;;;;;;13.77;7.03;;;11.50;99.90;;;;;;4789596;29;20498;-83
2022/01/02 01:19:57;;;;;;;12.77;7.30;;;11.50;99.90;;;;;;4805085;29;20515;-83
2022/01/02 01:22:23;;;;;;;13.02;7.18;;;11.50;99.90;;;;;;4806241;29;20058;-83
2022/01/02 01:24:49;;;;;;;12.63;6.70;;;11.50;99.90;;;;;;4805607;29;20138;-83
2022/01/02 01:27:15;;;;;;;12.43;7.32;;;11.50;99.90;;;;;;4806096;29;20087;-83
2022/01/02 01:29:40;;;;;;;12.98;7.47;;;11.50;99.90;;;;;;4804224;29;20541;-83
2022/01/02 01:32:07;;;;;;;11.77;7.18;;;11.50;99.90;;;;;;4805819;29;20059;-83
2022/01/02 01:34:32;;;;;;;14.20;7.03;;;11.50;99.90;;;;;;4804438;29;20505;-83
2022/01/02 01:36:58;;;;;;;12.80;6.57;;;11.50;99.90;;;;;;4806032;29;20130;-83
2022/01/02 01:39:24;;;;;;;15.57;7.80;;;11.50;99.90;;;;;;4805991;29;20055;-83
2022/01/02 01:41:52;;;;;;;13.32;7.55;;;11.50;99.90;;;;;;4805323;29;20061;-83
2022/01/02 01:46:44;;;;;;;12.98;7.43;;;11.40;99.90;;;;;;4803961;29;20402;-83
2022/01/02 01:49:20;;;;;;;14.60;7.15;;;11.40;99.90;;;;;;4805484;29;20137;-83
2022/01/02 01:51:46;;;;;;;10.35;7.88;;;11.50;99.90;;;;;;4804134;29;20066;-83
2022/01/02 01:54:11;;;;;;;14.38;7.63;;;11.40;99.90;;;;;;4789550;29;20051;-83
2022/01/02 01:56:37;;;;;;;14.82;7.75;;;11.40;99.90;;;;;;4804314;29;20043;-84
2022/01/02 01:59:03;;;;;;;14.43;8.02;;;11.40;99.90;;;;;;4804211;29;20090;-83
2022/01/02 02:01:29;;;;;;;12.63;8.13;;;11.40;99.90;;;;;;4805788;29;20086;-83
2022/01/02 02:03:55;;;;;;;15.27;8.18;;;11.40;99.90;;;;;;4804848;29;20050;-83
2022/01/02 02:06:21;;;;;;;16.63;7.85;;;11.30;99.90;;;;;;4789428;29;20051;-83
2022/01/02 02:08:47;;;;;;;10.93;7.75;;;11.40;99.90;;;;;;4803781;29;20409;-83
2022/01/02 02:11:13;;;;;;;17.88;8.18;;;11.40;99.90;;;;;;4805340;29;20123;-83
2022/01/02 02:13:38;;;;;;;16.90;8.25;;;11.40;99.90;;;;;;4804961;29;20057;-83
2022/01/02 02:16:04;;;;;;;14.43;7.65;;;11.40;99.90;;;;;;4804369;29;20046;-83
2022/01/02 02:18:30;;;;;;;15.77;7.78;;;11.40;99.90;;;;;;4804547;29;20058;-83
2022/01/02 02:20:55;;;;;;;18.35;7.72;;;11.50;99.90;;;;;;4804751;29;20572;-83
2022/01/02 02:23:21;;;;;;;19.48;8.02;;;11.40;99.90;;;;;;4789224;29;20481;-83
2022/01/02 02:25:46;;;;;;;15.85;8.43;;;11.40;99.90;;;;;;4804771;29;20447;-83
2022/01/02 02:28:14;;;;;;;16.13;7.68;;;11.40;99.90;;;;;;4805370;29;20082;-83
2022/01/02 02:30:43;;;;;;;18.77;7.80;;;11.40;99.90;;;;;;4804924;29;20055;-83
2022/01/02 02:33:09;;;;;;;16.55;8.32;;;11.40;99.90;;;;;;4804138;29;20051;-83
2022/01/02 02:35:35;;;;;;;13.50;7.75;;;11.40;99.90;;;;;;4804011;29;20051;-83
2022/01/02 02:38:01;;;;;;;16.75;8.50;;;11.40;99.90;;;;;;4788565;29;20409;-83
2022/01/02 02:40:28;;;;;;;15.35;8.48;;;11.40;99.90;;;;;;4804194;29;20059;-83
2022/01/02 02:42:59;;;;;;;20.30;8.38;;;11.40;99.90;;;;;;4804563;29;20055;-83
2022/01/02 02:50:57;;;;;;;15.52;8.02;;;11.30;99.90;;;;;;4804793;29;20410;-83
2022/01/02 02:53:23;;;;;;;14.18;7.50;;;11.40;99.90;;;;;;4805098;29;20047;-83
2022/01/02 02:55:54;;;;;;;16.00;8.27;;;11.30;99.90;;;;;;4806065;29;20063;-83
2022/01/02 03:00:58;;;;;;;14.25;8.25;;;11.30;99.90;;;;;;4808036;29;20094;-83
2022/01/02 03:03:24;;;;;;;16.10;8.65;;;11.30;99.90;;;;;;4807249;29;20459;-83
2022/01/02 03:05:50;;;;;;;16.08;8.07;;;11.30;99.90;;;;;;4806748;29;20137;-83
2022/01/02 03:08:15;;;;;;;14.43;8.02;;;11.30;99.90;;;;;;4807288;29;20085;-83
2022/01/02 03:10:41;;;;;;;16.60;8.15;;;11.30;99.90;;;;;;4808509;29;20088;-82
2022/01/02 03:13:07;;;;;;;15.35;7.97;;;11.30;99.90;;;;;;4808044;29;20112;-83
2022/01/02 03:15:32;;;;;;;15.48;7.82;;;11.30;99.90;;;;;;4807045;29;20129;-83
2022/01/02 03:17:58;;;;;;;17.73;8.07;;;11.30;99.90;;;;;;4807648;29;20493;-83
2022/01/02 03:20:24;;;;;;;16.17;8.02;;;11.30;99.90;;;;;;4807049;29;20058;-82
2022/01/02 03:22:49;;;;;;;18.10;8.38;;;11.30;99.90;;;;;;4807627;29;20042;-83
2022/01/02 03:25:16;;;;;;;16.75;8.45;;;11.30;99.90;;;;;;4808114;29;20120;-83
2022/01/02 03:27:42;;;;;;;17.67;8.07;;;11.30;99.90;;;;;;4807136;29;20063;-82
2022/01/02 03:30:08;;;;;;;17.23;7.75;;;11.30;99.90;;;;;;4807626;29;20051;-83
2022/01/02 03:32:34;;;;;;;17.63;8.18;;;11.30;99.90;;;;;;4808218;29;20134;-82
2022/01/02 03:35:00;;;;;;;16.77;7.30;;;11.40;99.90;;;;;;4807375;29;20138;-82
2022/01/02 03:37:28;;;;;;;17.15;7.82;;;11.30;99.90;;;;;;4807813;29;20069;-83
2022/01/02 03:39:57;;;;;;;16.63;7.97;;;11.40;99.90;;;;;;4807275;29;20062;-83
2022/01/02 03:42:23;;;;;;;15.85;7.47;;;11.40;99.90;;;;;;4806702;29;20051;-83
2022/01/02 03:44:48;;;;;;;20.17;8.00;;;11.40;99.90;;;;;;4807167;29;20486;-83
2022/01/02 03:47:14;;;;;;;23.27;7.63;;;11.40;99.90;;;;;;4807917;29;20047;-83
2022/01/02 03:49:39;;;;;;;17.65;7.22;;;11.40;99.90;;;;;;4807796;29;20410;-82
2022/01/02 03:52:05;;;;;;;16.58;7.50;;;11.50;99.90;;;;;;4807092;29;20088;-83
2022/01/02 03:54:31;;;;;;;14.90;7.40;;;11.50;99.90;;;;;;4807424;29;20050;-83
2022/01/02 03:56:56;;;;;;;20.00;7.22;;;11.50;99.90;;;;;;4806069;29;20043;-83
2022/01/02 03:59:22;;;;;;;22.10;8.27;;;11.50;99.90;;;;;;4791028;29;20050;-82
2022/01/02 04:01:48;;;;;;;16.30;6.97;;;11.50;99.90;;;;;;4806174;29;20519;-83
2022/01/02 04:04:13;;;;;;;16.75;7.03;;;11.50;99.90;;;;;;4806092;29;20066;-83
2022/01/02 04:06:39;;;;;;;18.17;7.07;;;11.50;99.90;;;;;;4807237;29;20051;-83
2022/01/02 04:09:05;;;;;;;21.75;7.18;;;11.60;99.90;;;;;;4790740;29;20418;-83
2022/01/02 04:11:30;;;;;;;17.55;7.05;;;11.60;99.90;;;;;;4806939;29;20065;-83
2022/01/02 04:13:56;;;;;;;19.90;7.57;;;11.60;99.90;;;;;;4806512;29;20051;-83
2022/01/02 04:16:22;;;;;;;17.67;7.50;;;11.60;99.90;;;;;;4806099;29;20057;-83
2022/01/02 04:18:49;;;;;;;20.52;8.18;;;11.60;99.90;;;;;;4807336;29;20125;-83
2022/01/02 04:21:15;;;;;;;16.38;7.28;;;11.60;99.90;;;;;;4806971;29;20526;-83
2022/01/02 04:23:41;;;;;;;15.45;6.72;;;11.50;99.90;;;;;;4791336;29;20139;-83
2022/01/02 04:26:07;;;;;;;17.02;7.47;;;11.60;99.90;;;;;;4776155;29;20091;-83
2022/01/02 04:28:33;;;;;;;16.17;7.47;;;11.50;99.90;;;;;;4805859;29;20050;-83
2022/01/02 04:30:58;;;;;;;18.17;6.97;;;11.50;99.90;;;;;;4806884;29;20051;-83
2022/01/02 04:33:24;;;;;;;18.67;7.38;;;11.60;99.90;;;;;;4805999;29;20051;-83
2022/01/02 04:35:49;;;;;;;16.70;7.28;;;11.50;99.90;;;;;;4806790;29;20058;-83
2022/01/02 04:38:15;;;;;;;19.10;6.97;;;11.60;99.90;;;;;;4806342;29;20486;-83
2022/01/02 04:40:41;;;;;;;18.52;6.80;;;11.50;99.90;;;;;;4790760;29;20050;-82
2022/01/02 04:43:07;;;;;;;15.40;6.57;;;11.60;99.90;;;;;;4790317;29;20051;-83
2022/01/02 04:45:32;;;;;;;18.00;6.70;;;11.60;99.90;;;;;;4805578;29;20146;-82
2022/01/02 04:47:58;;;;;;;22.13;6.80;;;11.60;99.90;;;;;;4806203;29;20059;-83
2022/01/02 04:50:24;;;;;;;21.77;7.30;;;11.60;99.90;;;;;;4806695;29;20051;-82
2022/01/02 04:52:49;;;;;;;21.08;6.75;;;11.50;99.90;;;;;;4806503;29;20418;-82
2022/01/02 04:55:15;;;;;;;18.85;6.88;;;11.60;99.90;;;;;;4806154;29;20050;-82
2022/01/02 04:57:41;;;;;;;12.93;6.25;;;11.60;99.90;;;;;;4806363;29;20418;-83
2022/01/02 05:00:07;;;;;;;19.05;6.93;;;11.60;99.90;;;;;;4806024;29;20050;-83
2022/01/02 05:02:33;;;;;;;17.35;6.47;;;11.60;99.90;;;;;;4806581;29;20069;-83
2022/01/02 05:04:58;;;;;;;18.88;6.30;;;11.60;99.90;;;;;;4806273;29;20059;-83
2022/01/02 05:07:24;;;;;;;11.20;5.90;;;11.70;99.90;;;;;;4806351;29;20054;-82
2022/01/02 05:09:50;;;;;;;14.30;6.32;;;11.60;99.90;;;;;;4805251;29;20099;-82
2022/01/02 05:12:15;;;;;;;18.75;6.40;;;11.60;99.90;;;;;;4804394;29;20059;-82
2022/01/02 05:14:41;;;;;;;19.67;6.45;;;11.60;99.90;;;;;;4805924;29;20062;-82
2022/01/02 05:17:07;;;;;;;15.30;5.45;;;11.60;99.90;;;;;;4804490;29;20516;-83
2022/01/02 05:19:32;;;;;;;12.40;5.43;;;11.70;99.90;;;;;;4805142;29;20050;-82
2022/01/02 05:21:58;;;;;;;14.25;5.63;;;11.70;99.90;;;;;;4805110;29;20474;-82
2022/01/02 05:24:24;;;;;;;16.98;5.38;;;11.70;99.90;;;;;;4804269;29;20047;-82
2022/01/02 05:26:50;;;;;;;17.77;6.10;;;11.70;99.90;;;;;;4806074;29;20058;-82
2022/01/02 05:29:17;;;;;;;17.20;5.53;;;11.70;99.90;;;;;;4789650;29;20070;-83
2022/01/02 05:31:42;;;;;;;14.70;4.95;;;11.70;99.90;;;;;;4806047;29;20405;-82
2022/01/02 05:34:08;;;;;;;15.18;5.15;;;11.70;99.90;;;;;;4805403;29;20051;-83
2022/01/02 05:36:33;;;;;;;19.88;5.63;;;11.80;99.90;;;;;;4805883;29;20153;-82
2022/01/02 05:39:00;;;;;;;21.10;6.18;;;11.70;99.90;;;;;;4790012;29;20055;-82
2022/01/02 05:41:27;;;;;;;15.82;5.57;;;11.80;99.90;;;;;;4805521;29;20063;-82
2022/01/02 05:43:53;;;;;;;17.00;5.10;;;11.80;99.90;;;;;;4805660;29;20050;-82
2022/01/02 05:46:18;;;;;;;17.60;5.50;;;11.80;99.90;;;;;;4803599;29;20062;-82
2022/01/02 05:48:45;;;;;;;16.02;5.20;;;11.80;99.90;;;;;;4805575;29;20099;-86
2022/01/02 05:51:11;;;;;;;15.35;5.32;;;11.80;99.90;;;;;;4789086;29;20051;-86
2022/01/02 05:53:36;;;;;;;16.63;6.05;;;11.80;99.90;;;;;;4804395;29;20387;-84
2022/01/02 05:56:02;;;;;;;22.33;5.78;;;11.80;99.90;;;;;;4804021;29;20054;-86
2022/01/02 05:58:28;;;;;;;17.92;5.30;;;11.80;99.90;;;;;;4804206;29;20494;-86
2022/01/02 06:00:53;;;;;;;17.35;5.60;;;11.80;99.90;;;;;;4789745;29;20054;-85
2022/01/02 06:03:19;;;;;;;15.52;5.25;;;11.80;99.90;;;;;;4803912;29;20054;-85
2022/01/02 06:05:45;;;;;;;14.73;5.15;;;11.80;99.90;;;;;;4774572;29;20066;-84
2022/01/02 06:08:11;;;;;;;18.00;5.03;;;11.80;99.90;;;;;;4774331;29;20134;-85
2022/01/02 06:10:36;;;;;;;13.65;4.75;;;11.80;99.90;;;;;;4789403;29;20196;-86
2022/01/02 06:13:02;;;;;;;13.52;4.38;;;11.80;99.90;;;;;;4789694;29;20047;-86
2022/01/02 06:15:28;;;;;;;17.17;5.07;;;11.80;99.90;;;;;;4774429;29;20058;-85
2022/01/02 06:17:53;;;;;;;13.68;4.47;;;11.80;99.90;;;;;;4789267;29;20120;-86
2022/01/02 06:20:19;;;;;;;15.98;4.53;;;11.70;99.90;;;;;;4774112;29;20054;-84
2022/01/02 06:22:47;;;;;;;18.90;4.93;;;11.80;99.90;;;;;;4759595;29;20055;-86
2022/01/02 06:25:13;;;;;;;14.00;5.00;;;11.80;99.90;;;;;;4804336;29;20051;-85
2022/01/02 06:27:39;;;;;;;15.48;4.32;;;11.80;99.90;;;;;;4804098;29;20393;-86
2022/01/02 06:30:05;;;;;;;12.45;4.18;;;11.80;99.90;;;;;;4774343;29;20067;-87
2022/01/02 06:32:31;;;;;;;16.80;4.57;;;11.80;99.90;;;;;;4788873;29;20550;-85
2022/01/02 06:34:59;;;;;;;14.85;4.68;;;11.80;99.90;;;;;;4789385;29;20083;-86
2022/01/02 06:37:24;;;;;;;10.75;3.97;;;11.80;99.90;;;;;;4803345;29;20046;-86
2022/01/02 06:39:50;;;;;;;15.13;4.30;;;11.90;99.90;;;;;;4789413;29;20561;-84
2022/01/02 06:42:16;;;;;;;13.35;4.10;;;11.90;99.90;;;;;;4788412;29;20058;-82
2022/01/02 06:44:41;;;;;;;12.27;4.07;;;11.90;99.90;;;;;;4803882;29;20063;-82
2022/01/02 06:47:09;;;;;;;13.75;4.30;;;11.90;99.90;;;;;;4805242;29;20119;-85
2022/01/02 06:49:35;;;;;;;11.68;3.92;;;11.90;99.90;;;;;;4788989;29;20046;-85
2022/01/02 06:52:04;;;;;;;9.65;3.65;;;11.90;99.90;;;;;;4774156;29;20050;-86
2022/01/02 06:54:29;;;;;;;11.63;3.40;;;11.90;99.90;;;;;;4803545;29;20447;-84
2022/01/02 06:56:55;;;;;;;11.00;3.83;;;11.90;99.90;;;;;;4803898;29;20059;-82
2022/01/02 06:59:22;;;;;;;11.82;3.95;;;12.00;99.90;;;;;;4804287;29;20554;-82
2022/01/02 07:01:48;;;;;;;13.75;3.78;;;12.00;99.90;;;;;;4803552;29;20526;-82
2022/01/02 07:04:14;;;;;;;13.07;3.60;;;12.00;99.90;;;;;;4804368;29;20173;-82
2022/01/02 07:06:39;;;;;;;9.80;3.05;;;12.00;99.90;;;;;;4803465;29;20054;-83
2022/01/02 07:09:05;;;;;;;13.55;3.30;;;12.00;99.90;;;;;;4804972;29;20061;-84
2022/01/02 07:11:30;;;;;;;9.27;3.40;;;12.10;99.90;;;;;;4773847;29;20051;-83
2022/01/02 07:13:56;;;;;;;9.95;3.10;;;12.10;99.90;;;;;;4804493;29;20074;-83
2022/01/02 07:16:22;;;;;;;13.50;3.25;;;12.10;99.90;;;;;;4804293;29;20140;-82
2022/01/02 07:18:47;;;;;;;9.25;3.08;;;12.10;99.90;;;;;;4803561;29;20054;-83
2022/01/02 07:21:13;;;;;;;10.48;3.25;;;12.10;99.90;;;;;;4804700;29;20058;-82
2022/01/02 07:23:39;;;;;;;10.32;3.17;;;12.10;99.90;;;;;;4804226;29;20055;-83
2022/01/02 07:26:04;;;;;;;9.48;3.50;;;12.10;99.90;;;;;;4803638;29;20133;-83
2022/01/02 07:28:33;;;;;;;9.13;3.25;;;12.10;99.90;;;;;;4804404;29;20065;-83
2022/01/02 07:30:59;;;;;;;7.88;3.10;;;12.10;99.90;;;;;;4788719;29;20089;-84
2022/01/02 07:33:25;;;;;;;8.38;3.10;;;12.10;99.90;;;;;;4802964;29;20511;-83
2022/01/02 07:35:51;;;;;;;8.30;3.20;;;12.10;99.90;;;;;;4804525;29;20086;-83
2022/01/02 07:38:16;;;;;;;10.57;3.63;;;12.10;99.90;;;;;;4803375;29;20043;-82
2022/01/02 07:40:42;;;;;;;7.57;3.22;;;12.10;99.90;;;;;;4787884;29;20428;-83
2022/01/02 07:43:08;;;;;;;8.20;3.60;;;12.10;99.90;;;;;;4804856;29;20053;-84
2022/01/02 07:45:33;;;;;;;10.38;3.88;;;12.10;99.90;;;;;;4791045;29;20059;-83
2022/01/02 07:47:59;;;;;;;12.10;3.75;;;12.10;99.90;;;;;;4806759;29;20050;-83
2022/01/02 07:50:25;;;;;;;13.65;4.25;;;12.00;99.90;;;;;;4806121;29;20451;-83
2022/01/02 07:52:52;;;;;;;9.35;3.80;;;12.00;99.90;;;;;;4806466;29;20058;-83
2022/01/02 07:55:19;;;;;;;9.65;3.70;;;12.00;99.90;;;;;;4806456;29;20137;-85
2022/01/02 07:57:44;;;;;;;10.77;3.53;;;12.00;99.90;;;;;;4806191;29;20430;-83
2022/01/02 08:00:10;;;;;;;10.40;3.72;;;12.00;99.90;;;;;;4807365;29;20129;-82
2022/01/02 08:02:36;;;;;;;12.15;3.90;;;12.00;99.90;;;;;;4807236;29;20390;-84
2022/01/02 08:05:02;;;;;;;8.68;3.53;;;12.00;99.90;;;;;;4807709;29;20058;-85
2022/01/02 08:07:28;;;;;;;15.25;4.40;;;12.00;99.90;;;;;;4806851;29;20537;-85
2022/01/02 08:09:53;;;;;;;10.70;3.80;;;12.00;99.90;;;;;;4806156;29;20085;-83
2022/01/02 08:12:19;;;;;;;10.55;4.32;;;12.00;99.90;;;;;;4807185;29;20047;-84
2022/01/02 08:14:45;;;;;;;7.10;4.15;;;12.00;99.90;;;;;;4806599;29;20386;-84
2022/01/02 08:17:10;;;;;;;11.75;4.00;;;12.00;99.90;;;;;;4791039;29;20045;-82
2022/01/02 08:19:36;;;;;;;8.50;4.18;;;12.00;99.90;;;;;;4805634;29;20066;-82
2022/01/02 08:22:02;;;;;;;8.77;4.40;;;11.90;99.90;;;;;;4807438;29;20051;-84
2022/01/02 08:24:27;;;;;;;10.25;4.45;;;11.90;99.90;;;;;;4790940;29;20055;-84
2022/01/02 08:26:53;;;;;;;9.95;4.40;;;11.90;99.90;;;;;;4806048;29;20059;-82
2022/01/02 08:29:19;;;;;;;9.65;4.72;;;11.80;99.90;;;;;;4807104;29;20061;-82
2022/01/02 08:31:44;;;;;;;10.40;4.30;;;11.80;99.90;;;;;;4805281;29;20120;-84
2022/01/02 08:34:10;;;;;;;10.73;4.95;;;11.80;99.90;;;;;;4807302;29;20476;-83
2022/01/02 08:36:35;;;;;;;7.43;4.40;;;11.80;99.90;;;;;;4806578;29;20058;-82
2022/01/02 08:39:01;;;;;;;10.85;4.45;;;11.80;99.90;;;;;;4807065;29;20383;-83
2022/01/02 08:41:27;;;;;;;10.02;4.50;;;11.70;99.90;;;;;;4805896;29;20058;-82
2022/01/02 08:43:52;;;;;;;8.45;4.65;;;11.80;99.90;;;;;;4790594;29;20058;-82
2022/01/02 08:46:18;;;;;;;10.85;4.68;;;11.70;99.90;;;;;;4805138;29;20055;-84
2022/01/02 08:48:44;;;;;;;10.55;4.40;;;11.70;99.90;;;;;;4806025;29;20046;-84
2022/01/02 08:51:12;;;;;;;8.85;4.55;;;11.70;99.90;;;;;;4806332;29;20062;-83
2022/01/02 08:53:38;;;;;;;10.40;4.70;;;11.70;99.90;;;;;;4804884;29;20058;-84
2022/01/02 08:56:03;;;;;;;9.15;4.57;;;11.70;99.90;;;;;;4805590;29;20071;-84
2022/01/02 08:58:29;;;;;;;12.05;4.70;;;11.70;99.90;;;;;;4790420;29;20042;-85
2022/01/02 09:00:57;;;;;;;11.32;4.57;;;11.70;99.90;;;;;;4805107;29;20069;-82
2022/01/02 09:03:23;;;;;;;9.57;4.38;;;11.60;99.90;;;;;;4806561;29;20499;-82
2022/01/02 09:05:48;;;;;;;12.45;4.78;;;11.60;99.90;;;;;;4805526;29;20061;-82
2022/01/02 09:08:14;;;;;;;7.25;4.00;;;11.60;99.90;;;;;;4805661;29;20054;-83
2022/01/02 09:10:40;;;;;;;11.68;4.50;;;11.60;99.90;;;;;;4806207;29;20078;-86
2022/01/02 09:13:07;;;;;;;14.93;4.70;;;11.60;99.90;;;;;;4805139;29;20058;-82
2022/01/02 09:15:38;;;;;;;11.88;4.75;;;11.60;99.90;;;;;;4806379;29;20090;-90
2022/01/02 09:18:06;;;;;;;11.60;5.28;;;11.60;99.90;;;;;;4791075;29;20053;-94
2022/01/02 09:20:35;;;;;;;10.85;4.43;;;11.60;99.90;;;;;;4790654;29;20050;-90
2022/01/02 09:23:00;;;;;;;10.40;4.88;;;11.60;99.90;;;;;;4805342;29;20051;-84
2022/01/02 09:25:28;;;;;;;9.88;4.95;;;11.60;99.90;;;;;;4805477;29;20061;-83
2022/01/02 09:27:54;;;;;;;11.45;4.70;;;11.60;99.90;;;;;;4804753;29;20054;-85
2022/01/02 09:30:20;;;;;;;11.57;4.70;;;11.60;99.90;;;;;;4790190;29;20043;-83
2022/01/02 09:32:45;;;;;;;11.15;5.10;;;11.60;99.90;;;;;;4789475;29;20058;-84
2022/01/02 09:35:11;;;;;;;11.20;5.07;;;11.60;99.90;;;;;;4805102;29;20043;-83
2022/01/02 09:37:37;;;;;;;9.05;4.60;;;11.60;99.90;;;;;;4789242;29;20082;-82
2022/01/02 09:40:04;;;;;;;9.23;4.70;;;11.60;99.90;;;;;;4805046;29;20096;-82
2022/01/02 09:42:30;;;;;;;7.88;4.70;;;11.60;99.90;;;;;;4805025;29;20059;-83
2022/01/02 09:44:55;;;;;;;12.30;4.72;;;11.60;99.90;;;;;;4789193;29;20070;-82
2022/01/02 09:47:21;;;;;;;13.60;5.00;;;11.60;99.90;;;;;;4805861;29;20054;-82
2022/01/02 09:49:47;;;;;;;9.13;4.53;;;11.70;99.90;;;;;;4805165;29;20367;-81
2022/01/02 09:52:13;;;;;;;9.27;4.63;;;11.70;99.90;;;;;;4804776;29;20055;-86
2022/01/02 09:54:39;;;;;;;9.57;5.10;;;11.70;99.90;;;;;;4804265;29;20074;-83
2022/01/02 09:57:04;;;;;;;10.73;5.32;;;11.70;99.90;;;;;;4805576;29;20047;-81
2022/01/02 09:59:32;;;;;;;11.38;5.28;;;11.70;99.90;;;;;;4804835;29;20062;-83
2022/01/02 10:02:01;;;;;;;10.90;5.15;;;11.80;99.90;;;;;;4789420;29;20409;-83
2022/01/02 10:04:35;;;;;;;17.17;5.93;;;11.80;99.90;;;;;;4804493;29;20090;-83
2022/01/02 10:07:00;;;;;;;9.30;5.07;;;11.80;99.90;;;;;;4804028;29;20093;-83
2022/01/02 10:09:30;;;;;;;12.20;5.30;;;11.90;99.90;;;;;;4804495;29;20088;-83
2022/01/02 10:12:19;;;;;;;12.45;5.30;;;11.90;99.90;;;;;;4805262;29;20054;-84
2022/01/02 10:14:45;;;;;;;12.52;5.47;;;12.00;99.90;;;;;;4801289;29;20426;-86
2022/01/02 10:17:11;;;;;;;11.50;5.38;;;12.00;99.90;;;;;;4804937;29;20053;-86
2022/01/02 10:19:38;;;;;;;15.00;5.57;;;12.00;99.90;;;;;;4804458;29;20056;-85
2022/01/02 10:22:05;;;;;;;10.15;5.30;;;12.00;99.90;;;;;;4789565;29;20498;-82
2022/01/02 10:24:33;;;;;;;12.93;5.78;;;12.10;99.90;;;;;;4804866;29;20567;-86
2022/01/02 10:27:18;;;;;;;14.35;5.32;;;12.10;99.90;;;;;;4774336;29;20057;-92
2022/01/02 10:29:58;;;;;;;10.88;5.10;;;12.00;99.90;;;;;;4805217;29;20086;-86
2022/01/02 10:32:31;;;;;;;10.20;5.78;;;12.00;99.90;;;;;;4789448;29;20054;-85
2022/01/02 10:35:27;;;;;;;12.45;5.43;;;12.00;99.90;;;;;;4790105;29;20427;-84
2022/01/02 10:37:54;;;;;;;11.05;5.75;;;12.00;99.90;;;;;;4784709;29;20146;-84
2022/01/02 10:40:38;;;;;;;12.52;4.65;;;12.00;99.90;;;;;;4804314;29;20051;-86
2022/01/02 10:43:06;;;;;;;12.07;5.10;;;12.00;99.90;;;;;;4803745;29;20134;-86
2022/01/02 10:45:35;;;;;;;11.25;4.75;;;12.00;99.90;;;;;;4804089;29;20069;-90
2022/01/02 10:48:02;;;;;;;10.87;5.20;;;12.10;99.90;;;;;;4803872;29;20383;-82
2022/01/02 10:50:28;;;;;;;13.57;4.88;;;12.00;99.90;;;;;;4805069;29;20498;-81
2022/01/02 10:52:53;;;;;;;11.40;5.35;;;12.10;99.90;;;;;;4804965;29;20061;-87
2022/01/02 10:55:27;;;;;;;11.80;5.55;;;12.10;99.90;;;;;;4805430;29;20054;-81
2022/01/02 10:57:57;;;;;;;11.55;5.20;;;12.20;99.90;;;;;;4803656;29;20133;-82
2022/01/02 11:00:26;;;;;;;11.45;5.20;;;12.20;99.90;;;;;;4805310;29;20058;-83
2022/01/02 11:02:52;;;;;;;10.48;4.53;;;12.20;99.90;;;;;;4789021;29;20055;-83
2022/01/02 11:05:19;;;;;;;11.85;5.15;;;12.20;99.90;;;;;;4805208;29;20058;-83
2022/01/02 11:07:52;;;;;;;8.63;4.47;;;12.20;99.90;;;;;;4805312;29;20058;-84
2022/01/02 11:10:20;;;;;;;12.82;5.03;;;12.20;99.90;;;;;;4805232;29;20090;-84
2022/01/02 11:12:47;;;;;;;9.63;4.50;;;12.20;99.90;;;;;;4804953;29;20252;-83
2022/01/02 11:15:15;;;;;;;13.15;4.15;;;12.30;99.90;;;;;;4803371;29;20410;-84
2022/01/02 11:17:40;;;;;;;11.65;4.70;;;12.30;99.90;;;;;;4806286;29;20049;-83
2022/01/02 11:20:08;;;;;;;14.13;4.50;;;12.30;99.90;;;;;;4808115;29;20164;-84
2022/01/02 11:22:57;;;;;;;12.63;4.55;;;12.30;99.90;;;;;;4807414;29;20441;-86
2022/01/02 11:25:41;;;;;;;11.93;4.85;;;12.30;99.90;;;;;;4806806;29;20066;-83
2022/01/02 11:28:13;;;;;;;9.63;4.60;;;12.20;99.90;;;;;;4807894;29;20130;-84
2022/01/02 11:30:39;;;;;;;17.00;5.28;;;12.20;99.90;;;;;;4808520;29;20123;-83
2022/01/02 11:33:13;;;;;;;13.13;4.80;;;12.20;99.90;;;;;;4806755;29;20115;-83
2022/01/02 11:35:40;;;;;;;11.43;4.88;;;12.20;99.90;;;;;;4806981;29;20051;-83
2022/01/02 11:38:06;;;;;;;14.30;4.60;;;12.20;99.90;;;;;;4807672;29;20138;-83
2022/01/02 11:40:52;;;;;;;11.98;4.60;;;12.20;99.90;;;;;;4807071;29;20138;-86
2022/01/02 11:43:36;;;;;;;12.50;4.60;;;12.20;99.90;;;;;;4807245;29;20506;-86
2022/01/02 11:46:19;;;;;;;9.30;3.92;;;12.20;99.90;;;;;;4806177;29;20067;-87
2022/01/02 11:49:15;;;;;;;14.07;4.38;;;12.20;99.90;;;;;;4791841;29;20045;-88
2022/01/02 11:51:47;;;;;;;11.25;4.07;;;12.30;99.90;;;;;;4807115;29;20058;-87
2022/01/02 11:54:49;;;;;;;14.82;4.28;;;12.20;99.90;;;;;;4806637;29;20047;-87
2022/01/02 11:57:20;;;;;;;11.25;4.10;;;12.30;99.90;;;;;;4807617;29;20090;-87
2022/01/02 11:59:46;;;;;;;13.10;3.40;;;12.20;99.90;;;;;;4808773;29;20550;-87
2022/01/02 12:02:17;;;;;;;12.27;3.80;;;12.20;99.90;;;;;;4806818;29;20055;-87
2022/01/02 12:05:11;;;;;;;11.73;3.85;;;12.20;99.90;;;;;;4791881;29;20082;-91
2022/01/02 12:07:45;;;;;;;15.30;3.95;;;12.20;99.90;;;;;;4806760;29;20517;-87
2022/01/02 12:10:16;;;;;;;17.92;3.60;;;12.10;99.90;;;;;;4807515;29;20055;-87
2022/01/02 12:13:00;;;;;;;13.82;4.07;;;12.10;99.90;;;;;;4807236;29;20047;-87
2022/01/02 12:18:28;;;;;;;14.82;3.72;;;12.10;99.90;;;;;;4807225;29;20046;-92
2022/01/02 12:20:56;;;;;;;12.60;3.63;;;12.10;99.90;;;;;;4808573;29;20459;-88
2022/01/02 12:23:40;;;;;;;15.05;3.67;;;12.10;99.90;;;;;;4809089;29;20498;-86
2022/01/02 12:26:39;;;;;;;16.52;4.15;;;12.10;99.90;;;;;;4805981;29;20489;-85
2022/01/02 12:29:12;;;;;;;18.10;3.65;;;12.20;99.90;;;;;;4804815;29;20066;-86
2022/01/02 12:31:41;;;;;;;11.60;3.65;;;12.10;99.90;;;;;;4791911;29;20477;-82
2022/01/02 12:34:14;;;;;;;12.60;3.50;;;12.10;99.90;;;;;;4805912;29;20551;-82
2022/01/02 12:36:42;;;;;;;15.02;3.22;;;12.10;99.90;;;;;;4807359;29;20051;-82
2022/01/02 12:39:31;;;;;;;18.20;3.63;;;12.10;99.90;;;;;;4790723;29;20058;-82
2022/01/02 12:42:04;;;;;;;13.30;3.55;;;12.20;99.90;;;;;;4807372;29;20059;-82
2022/01/02 12:44:32;;;;;;;14.90;3.90;;;12.10;99.90;;;;;;4805415;29;20502;-81
2022/01/02 12:46:58;;;;;;;12.43;3.22;;;12.00;99.90;;;;;;4807113;29;20057;-82
2022/01/02 12:49:26;;;;;;;17.17;3.60;;;12.10;99.90;;;;;;4790481;29;20134;-82
2022/01/02 12:51:53;;;;;;;15.93;3.58;;;12.00;99.90;;;;;;4791219;29;20095;-81
2022/01/02 12:54:27;;;;;;;12.68;3.10;;;12.00;99.90;;;;;;4806514;29;20513;-81